sensor_id;sensor_type;location;lat;lon;timestamp;P1;durP1;ratioP1;P2;durP2;ratioP2
21901;SDS011;11115;46.038;14.612;2023-04-25T00:03:40;2.07;;;1.37;;
21901;SDS011;11115;46.038;14.612;2023-04-25T00:06:16;6.77;;;1.70;;
21901;SDS011;11115;46.038;14.612;2023-04-25T00:08:49;4.20;;;2.33;;
21901;SDS011;11115;46.038;14.612;2023-04-25T00:11:19;3.67;;;1.60;;
21901;SDS011;11115;46.038;14.612;2023-04-25T00:13:51;2.37;;;1.53;;
21901;SDS011;11115;46.038;14.612;2023-04-25T00:16:23;1.57;;;1.20;;
21901;SDS011;11115;46.038;14.612;2023-04-25T00:18:57;3.03;;;1.60;;
21901;SDS011;11115;46.038;14.612;2023-04-25T00:21:30;2.80;;;1.30;;
21901;SDS011;11115;46.038;14.612;2023-04-25T00:24:03;3.78;;;1.65;;
21901;SDS011;11115;46.038;14.612;2023-04-25T00:26:33;2.08;;;1.20;;
21901;SDS011;11115;46.038;14.612;2023-04-25T00:29:13;1.67;;;0.87;;
21901;SDS011;11115;46.038;14.612;2023-04-25T00:31:41;1.63;;;1.33;;
21901;SDS011;11115;46.038;14.612;2023-04-25T00:34:12;0.95;;;0.90;;
21901;SDS011;11115;46.038;14.612;2023-04-25T00:36:44;2.50;;;1.25;;
21901;SDS011;11115;46.038;14.612;2023-04-25T00:39:16;2.45;;;1.08;;
21901;SDS011;11115;46.038;14.612;2023-04-25T00:41:49;3.13;;;1.83;;
21901;SDS011;11115;46.038;14.612;2023-04-25T00:44:24;1.33;;;1.23;;
21901;SDS011;11115;46.038;14.612;2023-04-25T00:47:08;2.93;;;1.67;;
21901;SDS011;11115;46.038;14.612;2023-04-25T00:49:40;3.37;;;2.03;;
21901;SDS011;11115;46.038;14.612;2023-04-25T00:52:14;1.50;;;1.13;;
21901;SDS011;11115;46.038;14.612;2023-04-25T00:54:57;2.20;;;0.90;;
21901;SDS011;11115;46.038;14.612;2023-04-25T00:57:44;2.17;;;1.30;;
21901;SDS011;11115;46.038;14.612;2023-04-25T01:00:30;2.20;;;1.67;;
21901;SDS011;11115;46.038;14.612;2023-04-25T01:03:06;3.07;;;1.53;;
21901;SDS011;11115;46.038;14.612;2023-04-25T01:05:45;1.17;;;1.07;;
21901;SDS011;11115;46.038;14.612;2023-04-25T01:08:25;0.73;;;0.73;;
21901;SDS011;11115;46.038;14.612;2023-04-25T01:11:00;1.10;;;0.73;;
21901;SDS011;11115;46.038;14.612;2023-04-25T01:13:34;1.27;;;0.70;;
21901;SDS011;11115;46.038;14.612;2023-04-25T01:16:03;1.40;;;0.50;;
21901;SDS011;11115;46.038;14.612;2023-04-25T01:18:42;0.60;;;0.60;;
21901;SDS011;11115;46.038;14.612;2023-04-25T01:21:19;1.13;;;0.83;;
21901;SDS011;11115;46.038;14.612;2023-04-25T01:23:48;0.83;;;0.80;;
21901;SDS011;11115;46.038;14.612;2023-04-25T01:26:18;0.60;;;0.60;;
21901;SDS011;11115;46.038;14.612;2023-04-25T01:28:52;0.63;;;0.52;;
21901;SDS011;11115;46.038;14.612;2023-04-25T01:31:20;20.33;;;0.77;;
21901;SDS011;11115;46.038;14.612;2023-04-25T01:33:50;1.03;;;0.60;;
21901;SDS011;11115;46.038;14.612;2023-04-25T01:36:30;0.70;;;0.70;;
21901;SDS011;11115;46.038;14.612;2023-04-25T01:39:06;0.67;;;0.50;;
21901;SDS011;11115;46.038;14.612;2023-04-25T01:41:46;0.40;;;0.40;;
21901;SDS011;11115;46.038;14.612;2023-04-25T01:44:17;0.53;;;0.50;;
21901;SDS011;11115;46.038;14.612;2023-04-25T01:46:48;0.80;;;0.80;;
21901;SDS011;11115;46.038;14.612;2023-04-25T01:49:20;1.00;;;0.57;;
21901;SDS011;11115;46.038;14.612;2023-04-25T01:52:05;0.43;;;0.40;;
21901;SDS011;11115;46.038;14.612;2023-04-25T01:54:37;0.75;;;0.47;;
21901;SDS011;11115;46.038;14.612;2023-04-25T01:57:15;0.50;;;0.50;;
21901;SDS011;11115;46.038;14.612;2023-04-25T01:59:47;0.95;;;0.80;;
21901;SDS011;11115;46.038;14.612;2023-04-25T02:02:41;0.40;;;0.37;;
21901;SDS011;11115;46.038;14.612;2023-04-25T02:05:27;1.03;;;0.70;;
21901;SDS011;11115;46.038;14.612;2023-04-25T02:10:33;3.07;;;0.70;;
21901;SDS011;11115;46.038;14.612;2023-04-25T02:13:29;1.03;;;0.63;;
21901;SDS011;11115;46.038;14.612;2023-04-25T02:16:14;0.40;;;0.40;;
21901;SDS011;11115;46.038;14.612;2023-04-25T02:18:46;0.57;;;0.50;;
21901;SDS011;11115;46.038;14.612;2023-04-25T02:21:22;0.40;;;0.37;;
21901;SDS011;11115;46.038;14.612;2023-04-25T02:23:55;0.50;;;0.50;;
21901;SDS011;11115;46.038;14.612;2023-04-25T02:26:40;0.70;;;0.40;;
21901;SDS011;11115;46.038;14.612;2023-04-25T02:29:09;1.20;;;0.60;;
21901;SDS011;11115;46.038;14.612;2023-04-25T02:31:58;0.67;;;0.60;;
21901;SDS011;11115;46.038;14.612;2023-04-25T02:34:32;0.90;;;0.60;;
21901;SDS011;11115;46.038;14.612;2023-04-25T02:37:16;0.83;;;0.50;;
21901;SDS011;11115;46.038;14.612;2023-04-25T02:39:45;0.37;;;0.37;;
21901;SDS011;11115;46.038;14.612;2023-04-25T02:42:19;1.13;;;0.70;;
21901;SDS011;11115;46.038;14.612;2023-04-25T02:44:47;0.50;;;0.50;;
21901;SDS011;11115;46.038;14.612;2023-04-25T02:47:22;0.60;;;0.60;;
21901;SDS011;11115;46.038;14.612;2023-04-25T02:50:02;0.33;;;0.33;;
21901;SDS011;11115;46.038;14.612;2023-04-25T02:52:41;0.40;;;0.40;;
21901;SDS011;11115;46.038;14.612;2023-04-25T02:55:22;1.50;;;0.83;;
21901;SDS011;11115;46.038;14.612;2023-04-25T02:58:04;0.53;;;0.50;;
21901;SDS011;11115;46.038;14.612;2023-04-25T03:00:47;1.10;;;0.57;;
21901;SDS011;11115;46.038;14.612;2023-04-25T03:03:22;0.77;;;0.63;;
21901;SDS011;11115;46.038;14.612;2023-04-25T03:05:55;1.15;;;0.50;;
21901;SDS011;11115;46.038;14.612;2023-04-25T03:08:31;1.20;;;0.40;;
21901;SDS011;11115;46.038;14.612;2023-04-25T03:11:14;2.40;;;0.97;;
21901;SDS011;11115;46.038;14.612;2023-04-25T03:13:50;0.87;;;0.83;;
21901;SDS011;11115;46.038;14.612;2023-04-25T03:16:20;0.73;;;0.57;;
21901;SDS011;11115;46.038;14.612;2023-04-25T03:18:57;3.97;;;1.10;;
21901;SDS011;11115;46.038;14.612;2023-04-25T03:21:34;5.37;;;1.10;;
21901;SDS011;11115;46.038;14.612;2023-04-25T03:24:05;2.77;;;0.93;;
21901;SDS011;11115;46.038;14.612;2023-04-25T03:26:49;0.97;;;0.53;;
21901;SDS011;11115;46.038;14.612;2023-04-25T03:29:22;2.00;;;0.90;;
21901;SDS011;11115;46.038;14.612;2023-04-25T03:31:56;5.97;;;1.40;;
21901;SDS011;11115;46.038;14.612;2023-04-25T03:34:34;1.80;;;1.43;;
21901;SDS011;11115;46.038;14.612;2023-04-25T03:37:02;2.73;;;1.20;;
21901;SDS011;11115;46.038;14.612;2023-04-25T03:39:38;1.60;;;1.07;;
21901;SDS011;11115;46.038;14.612;2023-04-25T03:42:12;5.13;;;0.80;;
21901;SDS011;11115;46.038;14.612;2023-04-25T03:44:46;2.70;;;1.00;;
21901;SDS011;11115;46.038;14.612;2023-04-25T03:47:24;3.93;;;1.00;;
21901;SDS011;11115;46.038;14.612;2023-04-25T03:49:59;1.93;;;1.17;;
21901;SDS011;11115;46.038;14.612;2023-04-25T03:52:32;1.90;;;1.10;;
21901;SDS011;11115;46.038;14.612;2023-04-25T03:55:04;2.00;;;1.15;;
21901;SDS011;11115;46.038;14.612;2023-04-25T03:57:47;0.60;;;0.60;;
21901;SDS011;11115;46.038;14.612;2023-04-25T04:00:19;1.20;;;0.87;;
21901;SDS011;11115;46.038;14.612;2023-04-25T04:02:53;3.13;;;1.03;;
21901;SDS011;11115;46.038;14.612;2023-04-25T04:05:25;1.47;;;1.07;;
21901;SDS011;11115;46.038;14.612;2023-04-25T04:10:29;2.43;;;1.10;;
21901;SDS011;11115;46.038;14.612;2023-04-25T04:13:01;0.87;;;0.80;;
21901;SDS011;11115;46.038;14.612;2023-04-25T04:15:38;1.83;;;0.83;;
21901;SDS011;11115;46.038;14.612;2023-04-25T04:18:23;2.70;;;1.20;;
21901;SDS011;11115;46.038;14.612;2023-04-25T04:20:57;1.53;;;0.90;;
21901;SDS011;11115;46.038;14.612;2023-04-25T04:23:34;1.00;;;0.80;;
21901;SDS011;11115;46.038;14.612;2023-04-25T04:26:11;2.73;;;1.03;;
21901;SDS011;11115;46.038;14.612;2023-04-25T04:29:09;1.47;;;1.00;;
21901;SDS011;11115;46.038;14.612;2023-04-25T04:31:55;3.47;;;1.50;;
21901;SDS011;11115;46.038;14.612;2023-04-25T04:34:30;1.90;;;1.00;;
21901;SDS011;11115;46.038;14.612;2023-04-25T04:37:05;1.60;;;1.27;;
21901;SDS011;11115;46.038;14.612;2023-04-25T04:39:36;4.00;;;2.38;;
21901;SDS011;11115;46.038;14.612;2023-04-25T04:42:21;2.80;;;1.87;;
21901;SDS011;11115;46.038;14.612;2023-04-25T04:45:21;4.33;;;1.97;;
21901;SDS011;11115;46.038;14.612;2023-04-25T04:48:14;3.33;;;2.23;;
21901;SDS011;11115;46.038;14.612;2023-04-25T04:51:08;3.17;;;1.90;;
21901;SDS011;11115;46.038;14.612;2023-04-25T04:53:47;4.17;;;2.03;;
21901;SDS011;11115;46.038;14.612;2023-04-25T04:56:40;3.37;;;2.27;;
21901;SDS011;11115;46.038;14.612;2023-04-25T04:59:28;4.17;;;2.23;;
21901;SDS011;11115;46.038;14.612;2023-04-25T05:02:30;3.47;;;2.33;;
21901;SDS011;11115;46.038;14.612;2023-04-25T05:05:20;3.50;;;2.50;;
21901;SDS011;11115;46.038;14.612;2023-04-25T05:08:26;3.20;;;2.13;;
21901;SDS011;11115;46.038;14.612;2023-04-25T05:11:21;2.43;;;1.83;;
21901;SDS011;11115;46.038;14.612;2023-04-25T05:14:04;4.23;;;3.00;;
21901;SDS011;11115;46.038;14.612;2023-04-25T05:17:03;5.07;;;2.30;;
21901;SDS011;11115;46.038;14.612;2023-04-25T05:20:14;3.37;;;2.23;;
21901;SDS011;11115;46.038;14.612;2023-04-25T05:23:06;3.43;;;1.83;;
21901;SDS011;11115;46.038;14.612;2023-04-25T05:26:12;3.67;;;2.10;;
21901;SDS011;11115;46.038;14.612;2023-04-25T05:28:51;3.00;;;2.00;;
21901;SDS011;11115;46.038;14.612;2023-04-25T05:31:45;2.43;;;1.80;;
21901;SDS011;11115;46.038;14.612;2023-04-25T05:34:18;4.93;;;2.17;;
21901;SDS011;11115;46.038;14.612;2023-04-25T05:37:09;4.73;;;2.50;;
21901;SDS011;11115;46.038;14.612;2023-04-25T05:39:52;3.40;;;2.10;;
21901;SDS011;11115;46.038;14.612;2023-04-25T05:42:32;3.63;;;2.03;;
21901;SDS011;11115;46.038;14.612;2023-04-25T05:45:35;4.97;;;2.33;;
21901;SDS011;11115;46.038;14.612;2023-04-25T05:48:43;3.30;;;1.70;;
21901;SDS011;11115;46.038;14.612;2023-04-25T05:51:33;3.10;;;2.07;;
21901;SDS011;11115;46.038;14.612;2023-04-25T05:54:26;2.90;;;1.73;;
21901;SDS011;11115;46.038;14.612;2023-04-25T05:56:57;3.50;;;1.83;;
21901;SDS011;11115;46.038;14.612;2023-04-25T05:59:31;4.13;;;2.10;;
21901;SDS011;11115;46.038;14.612;2023-04-25T06:02:04;2.73;;;2.00;;
21901;SDS011;11115;46.038;14.612;2023-04-25T06:04:37;2.63;;;1.70;;
21901;SDS011;11115;46.038;14.612;2023-04-25T06:07:09;2.30;;;1.70;;
21901;SDS011;11115;46.038;14.612;2023-04-25T06:09:40;2.43;;;1.67;;
21901;SDS011;11115;46.038;14.612;2023-04-25T06:12:19;2.20;;;1.20;;
21901;SDS011;11115;46.038;14.612;2023-04-25T06:14:52;3.47;;;2.23;;
21901;SDS011;11115;46.038;14.612;2023-04-25T06:17:23;2.07;;;1.70;;
21901;SDS011;11115;46.038;14.612;2023-04-25T06:19:54;3.83;;;2.10;;
21901;SDS011;11115;46.038;14.612;2023-04-25T06:22:28;3.77;;;1.87;;
21901;SDS011;11115;46.038;14.612;2023-04-25T06:25:02;3.40;;;1.90;;
21901;SDS011;11115;46.038;14.612;2023-04-25T06:27:33;2.17;;;1.40;;
21901;SDS011;11115;46.038;14.612;2023-04-25T06:30:16;1.93;;;1.43;;
21901;SDS011;11115;46.038;14.612;2023-04-25T06:32:53;3.37;;;1.70;;
21901;SDS011;11115;46.038;14.612;2023-04-25T06:35:31;4.30;;;2.13;;
21901;SDS011;11115;46.038;14.612;2023-04-25T06:38:10;2.20;;;1.27;;
21901;SDS011;11115;46.038;14.612;2023-04-25T06:40:48;2.73;;;1.57;;
21901;SDS011;11115;46.038;14.612;2023-04-25T06:43:36;2.27;;;1.17;;
21901;SDS011;11115;46.038;14.612;2023-04-25T06:46:30;1.50;;;1.20;;
21901;SDS011;11115;46.038;14.612;2023-04-25T06:49:01;2.87;;;1.40;;
21901;SDS011;11115;46.038;14.612;2023-04-25T06:54:08;2.60;;;1.43;;
21901;SDS011;11115;46.038;14.612;2023-04-25T06:56:53;2.13;;;1.40;;
21901;SDS011;11115;46.038;14.612;2023-04-25T06:59:29;2.87;;;1.70;;
21901;SDS011;11115;46.038;14.612;2023-04-25T07:02:13;1.33;;;1.17;;
21901;SDS011;11115;46.038;14.612;2023-04-25T07:04:46;2.77;;;1.70;;
21901;SDS011;11115;46.038;14.612;2023-04-25T07:07:16;2.38;;;1.70;;
21901;SDS011;11115;46.038;14.612;2023-04-25T07:09:56;4.00;;;2.37;;
21901;SDS011;11115;46.038;14.612;2023-04-25T07:12:35;1.87;;;1.57;;
21901;SDS011;11115;46.038;14.612;2023-04-25T07:15:07;2.53;;;1.47;;
21901;SDS011;11115;46.038;14.612;2023-04-25T07:17:42;3.30;;;1.73;;
21901;SDS011;11115;46.038;14.612;2023-04-25T07:20:13;2.50;;;1.63;;
21901;SDS011;11115;46.038;14.612;2023-04-25T07:22:58;2.87;;;1.40;;
21901;SDS011;11115;46.038;14.612;2023-04-25T07:25:29;2.27;;;1.03;;
21901;SDS011;11115;46.038;14.612;2023-04-25T07:28:01;1.60;;;1.27;;
21901;SDS011;11115;46.038;14.612;2023-04-25T07:30:39;2.13;;;1.53;;
21901;SDS011;11115;46.038;14.612;2023-04-25T07:33:25;1.47;;;1.10;;
21901;SDS011;11115;46.038;14.612;2023-04-25T07:36:02;1.87;;;1.00;;
21901;SDS011;11115;46.038;14.612;2023-04-25T07:38:33;1.50;;;1.17;;
21901;SDS011;11115;46.038;14.612;2023-04-25T07:41:01;1.97;;;1.07;;
21901;SDS011;11115;46.038;14.612;2023-04-25T07:43:33;2.30;;;1.03;;
21901;SDS011;11115;46.038;14.612;2023-04-25T07:46:05;2.17;;;1.30;;
21901;SDS011;11115;46.038;14.612;2023-04-25T07:48:48;2.35;;;1.75;;
21901;SDS011;11115;46.038;14.612;2023-04-25T07:51:25;2.13;;;1.17;;
21901;SDS011;11115;46.038;14.612;2023-04-25T07:54:17;3.70;;;1.23;;
21901;SDS011;11115;46.038;14.612;2023-04-25T07:57:12;1.37;;;1.00;;
21901;SDS011;11115;46.038;14.612;2023-04-25T07:59:44;1.07;;;0.90;;
21901;SDS011;11115;46.038;14.612;2023-04-25T08:02:22;2.33;;;0.87;;
21901;SDS011;11115;46.038;14.612;2023-04-25T08:04:58;0.80;;;0.80;;
21901;SDS011;11115;46.038;14.612;2023-04-25T08:07:40;1.07;;;0.80;;
21901;SDS011;11115;46.038;14.612;2023-04-25T08:10:11;2.38;;;1.00;;
21901;SDS011;11115;46.038;14.612;2023-04-25T08:12:49;1.40;;;0.90;;
21901;SDS011;11115;46.038;14.612;2023-04-25T08:15:31;3.80;;;1.10;;
21901;SDS011;11115;46.038;14.612;2023-04-25T08:18:16;3.17;;;1.07;;
21901;SDS011;11115;46.038;14.612;2023-04-25T08:20:48;2.20;;;1.10;;
21901;SDS011;11115;46.038;14.612;2023-04-25T08:23:19;2.05;;;0.98;;
21901;SDS011;11115;46.038;14.612;2023-04-25T08:26:15;2.47;;;1.03;;
21901;SDS011;11115;46.038;14.612;2023-04-25T08:28:57;1.83;;;1.10;;
21901;SDS011;11115;46.038;14.612;2023-04-25T08:31:39;3.40;;;1.00;;
21901;SDS011;11115;46.038;14.612;2023-04-25T08:34:13;2.20;;;1.50;;
21901;SDS011;11115;46.038;14.612;2023-04-25T08:36:47;3.03;;;1.30;;
21901;SDS011;11115;46.038;14.612;2023-04-25T08:39:38;0.87;;;0.87;;
21901;SDS011;11115;46.038;14.612;2023-04-25T08:42:41;1.67;;;0.83;;
21901;SDS011;11115;46.038;14.612;2023-04-25T08:45:13;1.17;;;1.08;;
21901;SDS011;11115;46.038;14.612;2023-04-25T08:47:45;1.55;;;1.15;;
21901;SDS011;11115;46.038;14.612;2023-04-25T08:50:19;1.17;;;0.57;;
21901;SDS011;11115;46.038;14.612;2023-04-25T08:52:55;1.67;;;0.77;;
21901;SDS011;11115;46.038;14.612;2023-04-25T08:55:42;1.13;;;1.03;;
21901;SDS011;11115;46.038;14.612;2023-04-25T08:58:13;1.77;;;1.03;;
21901;SDS011;11115;46.038;14.612;2023-04-25T09:00:49;0.77;;;0.77;;
21901;SDS011;11115;46.038;14.612;2023-04-25T09:03:24;3.10;;;1.40;;
21901;SDS011;11115;46.038;14.612;2023-04-25T09:05:57;3.03;;;0.97;;
21901;SDS011;11115;46.038;14.612;2023-04-25T09:08:36;1.60;;;1.33;;
21901;SDS011;11115;46.038;14.612;2023-04-25T09:11:23;0.80;;;0.80;;
21901;SDS011;11115;46.038;14.612;2023-04-25T09:14:17;1.83;;;0.95;;
21901;SDS011;11115;46.038;14.612;2023-04-25T09:17:05;6.37;;;0.90;;
21901;SDS011;11115;46.038;14.612;2023-04-25T09:20:08;1.13;;;0.73;;
21901;SDS011;11115;46.038;14.612;2023-04-25T09:22:40;1.03;;;0.77;;
21901;SDS011;11115;46.038;14.612;2023-04-25T09:25:14;1.67;;;1.20;;
21901;SDS011;11115;46.038;14.612;2023-04-25T09:27:52;10.70;;;0.90;;
21901;SDS011;11115;46.038;14.612;2023-04-25T09:30:33;1.77;;;0.83;;
21901;SDS011;11115;46.038;14.612;2023-04-25T09:33:40;0.57;;;0.57;;
21901;SDS011;11115;46.038;14.612;2023-04-25T09:36:25;0.80;;;0.80;;
21901;SDS011;11115;46.038;14.612;2023-04-25T09:39:14;0.97;;;0.70;;
21901;SDS011;11115;46.038;14.612;2023-04-25T09:42:15;1.02;;;0.93;;
21901;SDS011;11115;46.038;14.612;2023-04-25T09:44:46;1.88;;;0.65;;
21901;SDS011;11115;46.038;14.612;2023-04-25T09:47:18;1.77;;;1.07;;
21901;SDS011;11115;46.038;14.612;2023-04-25T09:49:49;1.90;;;0.90;;
21901;SDS011;11115;46.038;14.612;2023-04-25T09:52:21;0.80;;;0.63;;
21901;SDS011;11115;46.038;14.612;2023-04-25T09:55:04;3.13;;;1.27;;
21901;SDS011;11115;46.038;14.612;2023-04-25T09:57:53;0.70;;;0.70;;
21901;SDS011;11115;46.038;14.612;2023-04-25T10:00:34;4.77;;;0.80;;
21901;SDS011;11115;46.038;14.612;2023-04-25T10:03:21;0.57;;;0.57;;
21901;SDS011;11115;46.038;14.612;2023-04-25T10:06:18;1.43;;;0.83;;
21901;SDS011;11115;46.038;14.612;2023-04-25T10:08:51;1.37;;;0.63;;
21901;SDS011;11115;46.038;14.612;2023-04-25T10:11:35;0.60;;;0.60;;
21901;SDS011;11115;46.038;14.612;2023-04-25T10:14:16;0.80;;;0.80;;
21901;SDS011;11115;46.038;14.612;2023-04-25T10:16:53;1.93;;;0.57;;
21901;SDS011;11115;46.038;14.612;2023-04-25T10:19:25;0.97;;;0.80;;
21901;SDS011;11115;46.038;14.612;2023-04-25T10:22:20;1.07;;;0.60;;
21901;SDS011;11115;46.038;14.612;2023-04-25T10:25:03;0.60;;;0.60;;
21901;SDS011;11115;46.038;14.612;2023-04-25T10:27:41;0.80;;;0.80;;
21901;SDS011;11115;46.038;14.612;2023-04-25T10:30:13;0.67;;;0.67;;
21901;SDS011;11115;46.038;14.612;2023-04-25T10:32:54;0.43;;;0.40;;
21901;SDS011;11115;46.038;14.612;2023-04-25T10:35:31;0.40;;;0.40;;
21901;SDS011;11115;46.038;14.612;2023-04-25T10:38:11;1.60;;;0.53;;
21901;SDS011;11115;46.038;14.612;2023-04-25T10:41:02;0.53;;;0.50;;
21901;SDS011;11115;46.038;14.612;2023-04-25T10:43:38;0.67;;;0.50;;
21901;SDS011;11115;46.038;14.612;2023-04-25T10:46:31;1.63;;;0.60;;
21901;SDS011;11115;46.038;14.612;2023-04-25T10:49:06;5.03;;;0.80;;
21901;SDS011;11115;46.038;14.612;2023-04-25T10:51:41;1.20;;;0.60;;
21901;SDS011;11115;46.038;14.612;2023-04-25T10:54:22;4.40;;;0.67;;
21901;SDS011;11115;46.038;14.612;2023-04-25T10:56:54;1.07;;;0.63;;
21901;SDS011;11115;46.038;14.612;2023-04-25T10:59:28;0.80;;;0.57;;
21901;SDS011;11115;46.038;14.612;2023-04-25T11:01:58;0.52;;;0.50;;
21901;SDS011;11115;46.038;14.612;2023-04-25T11:04:30;1.95;;;0.90;;
21901;SDS011;11115;46.038;14.612;2023-04-25T11:07:19;1.30;;;0.87;;
21901;SDS011;11115;46.038;14.612;2023-04-25T11:10:02;0.75;;;0.65;;
21901;SDS011;11115;46.038;14.612;2023-04-25T11:12:48;0.87;;;0.83;;
21901;SDS011;11115;46.038;14.612;2023-04-25T11:15:22;0.60;;;0.60;;
21901;SDS011;11115;46.038;14.612;2023-04-25T11:18:16;1.50;;;0.80;;
21901;SDS011;11115;46.038;14.612;2023-04-25T11:20:53;0.50;;;0.50;;
21901;SDS011;11115;46.038;14.612;2023-04-25T11:26:06;1.65;;;0.60;;
21901;SDS011;11115;46.038;14.612;2023-04-25T11:28:37;0.60;;;0.50;;
21901;SDS011;11115;46.038;14.612;2023-04-25T11:31:07;0.87;;;0.87;;
21901;SDS011;11115;46.038;14.612;2023-04-25T11:33:40;0.60;;;0.60;;
21901;SDS011;11115;46.038;14.612;2023-04-25T11:36:19;1.30;;;0.60;;
21901;SDS011;11115;46.038;14.612;2023-04-25T11:38:50;0.43;;;0.40;;
21901;SDS011;11115;46.038;14.612;2023-04-25T11:41:28;0.87;;;0.80;;
21901;SDS011;11115;46.038;14.612;2023-04-25T11:44:18;2.73;;;0.73;;
21901;SDS011;11115;46.038;14.612;2023-04-25T11:46:50;1.13;;;0.70;;
21901;SDS011;11115;46.038;14.612;2023-04-25T11:49:21;0.68;;;0.63;;
21901;SDS011;11115;46.038;14.612;2023-04-25T11:51:56;2.37;;;0.70;;
21901;SDS011;11115;46.038;14.612;2023-04-25T11:54:26;1.77;;;0.80;;
21901;SDS011;11115;46.038;14.612;2023-04-25T11:56:59;0.33;;;0.33;;
21901;SDS011;11115;46.038;14.612;2023-04-25T11:59:33;1.07;;;0.77;;
21901;SDS011;11115;46.038;14.612;2023-04-25T12:02:07;0.93;;;0.60;;
21901;SDS011;11115;46.038;14.612;2023-04-25T12:04:41;0.60;;;0.60;;
21901;SDS011;11115;46.038;14.612;2023-04-25T12:07:11;0.80;;;0.77;;
21901;SDS011;11115;46.038;14.612;2023-04-25T12:10:04;0.93;;;0.80;;
21901;SDS011;11115;46.038;14.612;2023-04-25T12:12:49;0.77;;;0.57;;
21901;SDS011;11115;46.038;14.612;2023-04-25T12:15:25;0.40;;;0.40;;
21901;SDS011;11115;46.038;14.612;2023-04-25T12:17:56;0.60;;;0.60;;
21901;SDS011;11115;46.038;14.612;2023-04-25T12:20:27;0.30;;;0.30;;
21901;SDS011;11115;46.038;14.612;2023-04-25T12:22:56;1.17;;;0.70;;
21901;SDS011;11115;46.038;14.612;2023-04-25T12:25:39;0.52;;;0.47;;
21901;SDS011;11115;46.038;14.612;2023-04-25T12:33:44;0.77;;;0.57;;
21901;SDS011;11115;46.038;14.612;2023-04-25T12:36:16;0.57;;;0.45;;
21901;SDS011;11115;46.038;14.612;2023-04-25T12:38:54;0.43;;;0.43;;
21901;SDS011;11115;46.038;14.612;2023-04-25T12:41:35;0.73;;;0.43;;
21901;SDS011;11115;46.038;14.612;2023-04-25T12:44:14;0.63;;;0.63;;
21901;SDS011;11115;46.038;14.612;2023-04-25T12:46:48;3.73;;;0.57;;
21901;SDS011;11115;46.038;14.612;2023-04-25T12:49:18;0.53;;;0.47;;
21901;SDS011;11115;46.038;14.612;2023-04-25T12:51:52;2.10;;;0.93;;
21901;SDS011;11115;46.038;14.612;2023-04-25T12:54:23;0.97;;;0.50;;
21901;SDS011;11115;46.038;14.612;2023-04-25T12:56:54;0.37;;;0.37;;
21901;SDS011;11115;46.038;14.612;2023-04-25T12:59:37;1.37;;;0.87;;
21901;SDS011;11115;46.038;14.612;2023-04-25T13:02:08;0.60;;;0.60;;
21901;SDS011;11115;46.038;14.612;2023-04-25T13:04:39;1.47;;;0.70;;
21901;SDS011;11115;46.038;14.612;2023-04-25T13:07:13;0.70;;;0.70;;
21901;SDS011;11115;46.038;14.612;2023-04-25T13:09:44;0.40;;;0.40;;
21901;SDS011;11115;46.038;14.612;2023-04-25T13:12:17;0.80;;;0.70;;
21901;SDS011;11115;46.038;14.612;2023-04-25T13:15:03;0.80;;;0.63;;
21901;SDS011;11115;46.038;14.612;2023-04-25T13:17:37;1.33;;;0.60;;
21901;SDS011;11115;46.038;14.612;2023-04-25T13:20:14;0.40;;;0.40;;
21901;SDS011;11115;46.038;14.612;2023-04-25T13:22:49;0.47;;;0.43;;
21901;SDS011;11115;46.038;14.612;2023-04-25T13:25:35;2.37;;;0.80;;
21901;SDS011;11115;46.038;14.612;2023-04-25T13:28:06;0.70;;;0.43;;
21901;SDS011;11115;46.038;14.612;2023-04-25T13:30:35;1.23;;;0.70;;
21901;SDS011;11115;46.038;14.612;2023-04-25T13:33:09;1.77;;;0.97;;
21901;SDS011;11115;46.038;14.612;2023-04-25T13:35:43;1.23;;;0.73;;
21901;SDS011;11115;46.038;14.612;2023-04-25T13:38:14;2.85;;;0.55;;
21901;SDS011;11115;46.038;14.612;2023-04-25T13:40:45;0.60;;;0.60;;
21901;SDS011;11115;46.038;14.612;2023-04-25T13:43:16;0.75;;;0.73;;
21901;SDS011;11115;46.038;14.612;2023-04-25T13:45:58;0.47;;;0.20;;
21901;SDS011;11115;46.038;14.612;2023-04-25T13:48:31;0.93;;;0.70;;
21901;SDS011;11115;46.038;14.612;2023-04-25T13:51:22;3.30;;;0.77;;
21901;SDS011;11115;46.038;14.612;2023-04-25T13:53:50;0.55;;;0.55;;
21901;SDS011;11115;46.038;14.612;2023-04-25T13:56:18;0.73;;;0.40;;
21901;SDS011;11115;46.038;14.612;2023-04-25T13:58:52;0.67;;;0.37;;
21901;SDS011;11115;46.038;14.612;2023-04-25T14:01:22;0.50;;;0.50;;
21901;SDS011;11115;46.038;14.612;2023-04-25T14:03:53;0.37;;;0.37;;
21901;SDS011;11115;46.038;14.612;2023-04-25T14:06:26;3.57;;;0.60;;
21901;SDS011;11115;46.038;14.612;2023-04-25T14:08:58;0.60;;;0.60;;
21901;SDS011;11115;46.038;14.612;2023-04-25T14:11:39;2.10;;;0.70;;
21901;SDS011;11115;46.038;14.612;2023-04-25T14:14:11;2.07;;;0.73;;
21901;SDS011;11115;46.038;14.612;2023-04-25T14:16:43;0.50;;;0.50;;
21901;SDS011;11115;46.038;14.612;2023-04-25T14:19:17;0.60;;;0.50;;
21901;SDS011;11115;46.038;14.612;2023-04-25T14:21:54;0.67;;;0.50;;
21901;SDS011;11115;46.038;14.612;2023-04-25T14:24:40;16.77;;;3.97;;
21901;SDS011;11115;46.038;14.612;2023-04-25T14:27:12;3.77;;;1.27;;
21901;SDS011;11115;46.038;14.612;2023-04-25T14:29:42;3.23;;;1.30;;
21901;SDS011;11115;46.038;14.612;2023-04-25T14:32:14;0.83;;;0.80;;
21901;SDS011;11115;46.038;14.612;2023-04-25T14:34:48;1.60;;;0.70;;
21901;SDS011;11115;46.038;14.612;2023-04-25T14:37:18;0.73;;;0.60;;
21901;SDS011;11115;46.038;14.612;2023-04-25T14:39:50;1.17;;;0.57;;
21901;SDS011;11115;46.038;14.612;2023-04-25T14:42:20;0.50;;;0.50;;
21901;SDS011;11115;46.038;14.612;2023-04-25T14:44:51;0.30;;;0.30;;
21901;SDS011;11115;46.038;14.612;2023-04-25T14:47:28;0.90;;;0.50;;
21901;SDS011;11115;46.038;14.612;2023-04-25T14:50:00;0.55;;;0.35;;
21901;SDS011;11115;46.038;14.612;2023-04-25T14:52:48;1.10;;;0.60;;
21901;SDS011;11115;46.038;14.612;2023-04-25T14:55:19;0.75;;;0.65;;
21901;SDS011;11115;46.038;14.612;2023-04-25T14:58:04;1.50;;;0.60;;
21901;SDS011;11115;46.038;14.612;2023-04-25T15:00:37;1.07;;;0.60;;
21901;SDS011;11115;46.038;14.612;2023-04-25T15:03:16;1.33;;;0.50;;
21901;SDS011;11115;46.038;14.612;2023-04-25T15:05:52;0.57;;;0.57;;
21901;SDS011;11115;46.038;14.612;2023-04-25T15:08:26;0.83;;;0.80;;
21901;SDS011;11115;46.038;14.612;2023-04-25T15:10:54;0.83;;;0.50;;
21901;SDS011;11115;46.038;14.612;2023-04-25T15:13:25;0.70;;;0.43;;
21901;SDS011;11115;46.038;14.612;2023-04-25T15:16:06;0.57;;;0.57;;
21901;SDS011;11115;46.038;14.612;2023-04-25T15:18:39;2.47;;;0.50;;
21901;SDS011;11115;46.038;14.612;2023-04-25T15:21:14;1.53;;;0.60;;
21901;SDS011;11115;46.038;14.612;2023-04-25T15:23:53;1.73;;;0.50;;
21901;SDS011;11115;46.038;14.612;2023-04-25T15:26:28;0.40;;;0.30;;
21901;SDS011;11115;46.038;14.612;2023-04-25T15:29:14;1.03;;;0.60;;
21901;SDS011;11115;46.038;14.612;2023-04-25T15:31:44;0.43;;;0.38;;
21901;SDS011;11115;46.038;14.612;2023-04-25T15:34:20;1.30;;;0.63;;
21901;SDS011;11115;46.038;14.612;2023-04-25T15:36:51;0.30;;;0.30;;
21901;SDS011;11115;46.038;14.612;2023-04-25T15:39:26;0.63;;;0.40;;
21901;SDS011;11115;46.038;14.612;2023-04-25T15:41:59;0.20;;;0.13;;
21901;SDS011;11115;46.038;14.612;2023-04-25T15:44:44;0.40;;;0.40;;
21901;SDS011;11115;46.038;14.612;2023-04-25T15:47:15;0.40;;;0.32;;
21901;SDS011;11115;46.038;14.612;2023-04-25T15:49:59;0.40;;;0.40;;
21901;SDS011;11115;46.038;14.612;2023-04-25T15:52:33;0.20;;;0.20;;
21901;SDS011;11115;46.038;14.612;2023-04-25T15:57:44;1.33;;;0.73;;